createdAt,value
2019-03-08T00:00:01.652Z,2.75
2019-03-08T00:01:08.953Z,2.75
2019-03-08T00:02:14.170Z,1.70
2019-03-08T00:03:19.518Z,1.62
2019-03-08T00:04:24.575Z,1.80
2019-03-08T00:05:29.745Z,1.85
2019-03-08T00:06:34.875Z,1.80
2019-03-08T00:07:39.837Z,2.35
2019-03-08T00:08:45.200Z,2.02
2019-03-08T00:09:50.218Z,1.50
2019-03-08T00:10:55.492Z,2.12
2019-03-08T00:12:00.638Z,2.05
2019-03-08T00:13:05.872Z,1.98
2019-03-08T00:14:11.255Z,2.98
2019-03-08T00:15:16.518Z,2.15
2019-03-08T00:16:21.586Z,3.30
2019-03-08T00:17:26.837Z,1.98
2019-03-08T00:18:31.958Z,1.95
2019-03-08T00:19:36.918Z,2.30
2019-03-08T00:20:42.303Z,1.82
2019-03-08T00:21:47.372Z,1.85
2019-03-08T00:22:52.548Z,3.00
2019-03-08T00:23:57.523Z,2.25
2019-03-08T00:25:02.694Z,2.12
2019-03-08T00:26:07.824Z,2.20
2019-03-08T00:27:13.642Z,2.10
2019-03-08T00:28:18.657Z,2.90
2019-03-08T00:29:23.735Z,2.17
2019-03-08T00:30:28.900Z,2.35
2019-03-08T00:31:33.875Z,2.02
2019-03-08T00:32:39.095Z,2.30
2019-03-08T00:33:44.214Z,2.90
2019-03-08T00:34:49.206Z,2.02
2019-03-08T00:35:54.418Z,2.20
2019-03-08T00:36:59.690Z,2.80
2019-03-08T00:38:04.791Z,2.67
2019-03-08T00:39:10.197Z,2.70
2019-03-08T00:40:15.315Z,2.40
2019-03-08T00:41:20.446Z,2.70
2019-03-08T00:42:25.680Z,2.17
2019-03-08T00:43:30.752Z,2.30
2019-03-08T00:44:35.922Z,2.58
2019-03-08T00:45:40.992Z,1.98
2019-03-08T00:46:46.016Z,1.95
2019-03-08T00:47:51.072Z,3.22
2019-03-08T00:48:56.100Z,2.20
2019-03-08T00:50:01.195Z,2.60
2019-03-08T00:51:06.240Z,2.42
2019-03-08T00:52:11.668Z,2.40
2019-03-08T00:53:16.803Z,3.40
2019-03-08T00:54:22.029Z,2.60
2019-03-08T00:55:27.074Z,2.83
2019-03-08T00:56:32.331Z,2.40
2019-03-08T00:57:37.849Z,2.35
2019-03-08T00:58:42.901Z,2.15
2019-03-08T00:59:47.907Z,2.20
2019-03-08T01:00:53.000Z,2.25
2019-03-08T01:01:58.193Z,2.10
2019-03-08T01:03:03.540Z,1.98
2019-03-08T01:04:08.515Z,1.57
2019-03-08T01:05:14.373Z,2.52
2019-03-08T01:06:19.460Z,2.10
2019-03-08T01:07:24.851Z,2.00
2019-03-08T01:08:29.821Z,2.20
2019-03-08T01:09:35.293Z,2.00
2019-03-08T01:10:40.463Z,2.45
2019-03-08T01:11:45.469Z,2.30
2019-03-08T01:12:50.625Z,2.55
2019-03-08T01:13:55.688Z,3.15
2019-03-08T01:15:00.758Z,2.50
2019-03-08T01:16:05.870Z,2.52
2019-03-08T01:17:10.989Z,3.00
2019-03-08T01:18:16.064Z,2.30
2019-03-08T01:19:21.388Z,2.60
2019-03-08T01:20:26.545Z,2.95
2019-03-08T01:21:31.607Z,2.25
2019-03-08T01:22:37.010Z,2.67
2019-03-08T01:23:42.229Z,2.15
2019-03-08T01:24:47.150Z,2.60
2019-03-08T01:25:52.288Z,2.52
2019-03-08T01:26:57.315Z,2.83
2019-03-08T01:28:05.182Z,2.27
2019-03-08T01:29:10.457Z,2.10
2019-03-08T01:30:15.592Z,1.95
2019-03-08T01:31:20.708Z,2.42
2019-03-08T01:32:25.680Z,2.15
2019-03-08T01:33:30.721Z,2.20
2019-03-08T01:34:36.069Z,2.08
2019-03-08T01:35:41.178Z,2.60
2019-03-08T01:36:46.194Z,2.83
2019-03-08T01:37:51.638Z,2.30
2019-03-08T01:38:56.578Z,2.22
2019-03-08T01:40:01.779Z,2.85
2019-03-08T01:41:06.979Z,2.37
2019-03-08T01:42:12.244Z,2.92
2019-03-08T01:43:17.493Z,2.25
2019-03-08T01:44:23.339Z,2.30
2019-03-08T01:45:28.504Z,2.50
2019-03-08T01:46:33.857Z,2.20
2019-03-08T01:47:38.932Z,2.40
2019-03-08T01:48:44.336Z,2.40
2019-03-08T01:49:49.679Z,2.80
2019-03-08T01:50:55.014Z,2.27
2019-03-08T01:52:00.389Z,2.27
2019-03-08T01:53:05.762Z,2.50
2019-03-08T01:54:10.747Z,2.02
2019-03-08T01:55:16.106Z,2.77
2019-03-08T01:56:21.263Z,2.65
2019-03-08T01:57:26.231Z,2.45
2019-03-08T01:58:31.313Z,2.70
2019-03-08T01:59:36.616Z,1.87
2019-03-08T02:00:42.005Z,3.22
2019-03-08T02:01:47.411Z,2.15
2019-03-08T02:02:52.428Z,2.35
2019-03-08T02:03:57.482Z,2.17
2019-03-08T02:05:02.671Z,2.67
2019-03-08T02:06:07.711Z,2.35
2019-03-08T02:07:12.851Z,2.65
2019-03-08T02:08:17.836Z,2.90
2019-03-08T02:09:22.912Z,3.22
2019-03-08T02:10:28.147Z,2.83
2019-03-08T02:11:33.257Z,2.30
2019-03-08T02:12:38.674Z,2.60
2019-03-08T02:13:43.997Z,3.05
2019-03-08T02:14:48.999Z,2.98
2019-03-08T02:15:54.316Z,2.75
2019-03-08T02:16:59.274Z,2.90
2019-03-08T02:18:04.386Z,2.90
2019-03-08T02:19:09.524Z,2.50
2019-03-08T02:20:17.567Z,2.75
2019-03-08T02:21:22.680Z,2.75
2019-03-08T02:22:27.853Z,2.70
2019-03-08T02:23:32.878Z,2.62
2019-03-08T02:24:37.895Z,2.37
2019-03-08T02:25:43.048Z,2.95
2019-03-08T02:26:48.181Z,2.80
2019-03-08T02:27:53.482Z,3.00
2019-03-08T02:28:58.469Z,3.22
2019-03-08T02:30:03.673Z,3.17
2019-03-08T02:31:09.105Z,3.10
2019-03-08T02:32:14.308Z,3.22
2019-03-08T02:33:19.357Z,3.00
2019-03-08T02:34:24.457Z,3.10
2019-03-08T02:35:29.539Z,3.20
2019-03-08T02:36:34.892Z,3.10
2019-03-08T02:37:40.015Z,3.08
2019-03-08T02:38:45.368Z,3.95
2019-03-08T02:39:50.419Z,3.65
2019-03-08T02:40:55.424Z,3.10
2019-03-08T02:42:00.560Z,2.90
2019-03-08T02:43:10.579Z,3.50
2019-03-08T02:44:15.720Z,2.92
2019-03-08T02:45:20.846Z,3.62
2019-03-08T02:46:26.202Z,3.80
2019-03-08T02:47:31.299Z,3.60
2019-03-08T02:48:36.302Z,3.35
2019-03-08T02:49:41.676Z,4.97
2019-03-08T02:50:46.874Z,3.75
2019-03-08T02:51:52.102Z,4.25
2019-03-08T02:52:57.446Z,3.10
2019-03-08T02:54:02.463Z,3.25
2019-03-08T02:55:07.604Z,3.67
2019-03-08T02:56:12.885Z,3.87
2019-03-08T02:57:17.998Z,2.70
2019-03-08T02:58:23.024Z,3.30
2019-03-08T02:59:28.143Z,3.55
2019-03-08T03:00:43.518Z,3.40
2019-03-08T03:01:53.163Z,3.17
2019-03-08T03:02:58.117Z,4.03
2019-03-08T03:04:03.172Z,4.00
2019-03-08T03:05:08.407Z,3.30
2019-03-08T03:06:13.425Z,3.42
2019-03-08T03:07:18.475Z,2.10
2019-03-08T03:08:23.471Z,1.80
2019-03-08T03:09:28.435Z,1.90
2019-03-08T03:10:33.810Z,1.90
2019-03-08T03:11:38.841Z,1.40
2019-03-08T03:12:44.239Z,1.80
2019-03-08T03:13:49.540Z,2.30
2019-03-08T03:14:54.518Z,2.27
2019-03-08T03:15:59.956Z,1.92
2019-03-08T03:17:04.981Z,1.70
2019-03-08T03:18:10.170Z,2.10
2019-03-08T03:19:16.010Z,1.77
2019-03-08T03:20:21.418Z,2.10
2019-03-08T03:21:26.536Z,2.37
2019-03-08T03:22:31.625Z,2.12
2019-03-08T03:23:37.011Z,2.50
2019-03-08T03:24:41.961Z,2.60
2019-03-08T03:25:47.006Z,2.20
2019-03-08T03:26:52.345Z,1.95
2019-03-08T03:27:57.433Z,1.95
2019-03-08T03:29:02.407Z,2.55
2019-03-08T03:30:07.955Z,2.65
2019-03-08T03:31:12.948Z,2.20
2019-03-08T03:32:18.209Z,2.35
2019-03-08T03:33:23.503Z,1.70
2019-03-08T03:34:28.707Z,2.05
2019-03-08T03:35:33.967Z,2.60
2019-03-08T03:36:38.994Z,2.12
2019-03-08T03:37:44.632Z,2.92
2019-03-08T03:38:50.014Z,2.70
2019-03-08T03:39:55.284Z,2.30
2019-03-08T03:41:00.401Z,2.02
2019-03-08T03:42:05.713Z,2.00
2019-03-08T03:43:11.447Z,2.22
2019-03-08T03:44:16.846Z,2.20
2019-03-08T03:45:22.931Z,2.47
2019-03-08T03:46:28.079Z,2.10
2019-03-08T03:47:33.227Z,2.55
2019-03-08T03:48:38.245Z,2.17
2019-03-08T03:49:43.515Z,2.70
2019-03-08T03:50:48.681Z,2.30
2019-03-08T03:51:53.735Z,1.92
2019-03-08T03:52:58.791Z,2.60
2019-03-08T03:54:03.883Z,2.45
2019-03-08T03:55:09.600Z,1.82
2019-03-08T03:56:14.613Z,2.30
2019-03-08T03:57:19.730Z,2.15
2019-03-08T03:58:25.042Z,2.12
2019-03-08T03:59:30.207Z,2.80
2019-03-08T04:00:35.657Z,2.05
2019-03-08T04:01:46.050Z,2.92
2019-03-08T04:02:51.219Z,2.45
2019-03-08T04:03:56.516Z,2.67
2019-03-08T04:05:01.574Z,2.60
2019-03-08T04:06:06.866Z,2.52
2019-03-08T04:07:12.104Z,2.47
2019-03-08T04:08:17.199Z,2.77
2019-03-08T04:09:22.223Z,2.83
2019-03-08T04:10:27.377Z,2.40
2019-03-08T04:11:32.647Z,2.45
2019-03-08T04:12:38.119Z,2.60
2019-03-08T04:13:43.215Z,2.55
2019-03-08T04:14:48.321Z,2.45
2019-03-08T04:15:53.484Z,2.52
2019-03-08T04:16:58.551Z,2.27
2019-03-08T04:18:03.579Z,2.52
2019-03-08T04:19:08.927Z,2.60
2019-03-08T04:20:14.608Z,3.20
2019-03-08T04:21:20.008Z,2.60
2019-03-08T04:22:25.177Z,2.50
2019-03-08T04:23:30.216Z,2.87
2019-03-08T04:24:35.254Z,2.50
2019-03-08T04:25:40.315Z,2.90
2019-03-08T04:26:45.281Z,2.90
2019-03-08T04:27:50.637Z,2.65
2019-03-08T04:28:55.911Z,2.30
2019-03-08T04:30:00.898Z,2.85
2019-03-08T04:31:05.965Z,3.00
2019-03-08T04:32:10.995Z,2.87
2019-03-08T04:33:15.936Z,3.40
2019-03-08T04:34:20.944Z,2.83
2019-03-08T04:35:26.081Z,3.15
2019-03-08T04:36:31.228Z,2.80
2019-03-08T04:37:36.495Z,3.00
2019-03-08T04:38:41.558Z,2.90
2019-03-08T04:39:46.569Z,2.98
2019-03-08T04:40:51.685Z,3.35
2019-03-08T04:41:56.801Z,3.10
2019-03-08T04:43:01.839Z,3.00
2019-03-08T04:44:06.914Z,3.08
2019-03-08T04:45:12.215Z,3.35
2019-03-08T04:46:17.369Z,3.42
2019-03-08T04:47:22.628Z,3.37
2019-03-08T04:48:27.805Z,3.15
2019-03-08T04:49:32.977Z,4.20
2019-03-08T04:50:37.977Z,3.20
2019-03-08T04:51:43.175Z,2.95
2019-03-08T04:52:48.280Z,3.12
2019-03-08T04:53:53.447Z,3.85
2019-03-08T04:54:58.550Z,3.40
2019-03-08T04:56:03.527Z,3.30
2019-03-08T04:57:08.521Z,4.28
2019-03-08T04:58:14.067Z,3.47
2019-03-08T04:59:19.349Z,3.58
2019-03-08T05:00:24.407Z,3.22
2019-03-08T05:01:29.399Z,3.50
2019-03-08T05:02:34.449Z,4.03
2019-03-08T05:03:40.029Z,4.50
2019-03-08T05:04:44.989Z,3.10
2019-03-08T05:05:50.345Z,3.55
2019-03-08T05:06:55.487Z,3.77
2019-03-08T05:08:00.570Z,3.83
2019-03-08T05:09:07.040Z,3.77
2019-03-08T05:10:13.588Z,4.40
2019-03-08T05:11:18.820Z,3.90
2019-03-08T05:12:24.293Z,4.80
2019-03-08T05:13:29.337Z,3.95
2019-03-08T05:14:34.358Z,4.00
2019-03-08T05:15:39.561Z,3.85
2019-03-08T05:16:44.708Z,3.98
2019-03-08T05:17:49.737Z,4.00
2019-03-08T05:18:54.804Z,3.92
2019-03-08T05:19:59.891Z,3.95
2019-03-08T05:21:04.971Z,4.05
2019-03-08T05:22:10.131Z,4.17
2019-03-08T05:23:15.189Z,4.65
2019-03-08T05:24:20.286Z,3.50
2019-03-08T05:25:25.453Z,4.50
2019-03-08T05:26:30.501Z,4.72
2019-03-08T05:27:35.817Z,4.08
2019-03-08T05:28:41.157Z,4.65
2019-03-08T05:29:46.424Z,4.50
2019-03-08T05:30:51.480Z,3.83
2019-03-08T05:31:56.566Z,3.95
2019-03-08T05:33:01.933Z,4.70
2019-03-08T05:34:07.113Z,4.50
2019-03-08T05:35:13.485Z,4.83
2019-03-08T05:36:18.449Z,5.15
2019-03-08T05:37:23.562Z,4.60
2019-03-08T05:38:28.498Z,3.83
2019-03-08T05:39:33.861Z,4.12
2019-03-08T05:40:38.957Z,4.60
2019-03-08T05:41:44.015Z,4.60
2019-03-08T05:42:48.954Z,4.08
2019-03-08T05:43:53.985Z,3.80
2019-03-08T05:44:59.367Z,3.95
2019-03-08T05:46:04.528Z,4.60
2019-03-08T05:47:09.574Z,4.20
2019-03-08T05:48:14.584Z,4.30
2019-03-08T05:49:19.871Z,4.20
2019-03-08T05:50:24.811Z,3.98
2019-03-08T05:51:29.888Z,3.55
2019-03-08T05:52:34.836Z,4.10
2019-03-08T05:53:40.020Z,4.30
2019-03-08T05:54:45.246Z,4.15
2019-03-08T05:55:50.515Z,4.37
2019-03-08T05:56:55.559Z,4.30
2019-03-08T05:58:01.033Z,4.53
2019-03-08T05:59:06.075Z,3.52
2019-03-08T06:00:11.548Z,3.95
2019-03-08T06:01:16.536Z,5.05
2019-03-08T06:02:21.578Z,4.78
2019-03-08T06:03:26.659Z,4.37
2019-03-08T06:04:31.905Z,4.05
2019-03-08T06:05:36.980Z,4.45
2019-03-08T06:06:41.937Z,4.33
2019-03-08T06:07:47.315Z,4.85
2019-03-08T06:08:52.244Z,4.65
2019-03-08T06:09:57.655Z,4.83
2019-03-08T06:11:03.318Z,3.83
2019-03-08T06:12:08.412Z,5.12
2019-03-08T06:13:13.444Z,4.58
2019-03-08T06:14:18.836Z,4.62
2019-03-08T06:15:24.288Z,4.35
2019-03-08T06:16:29.336Z,4.55
2019-03-08T06:17:34.445Z,4.10
2019-03-08T06:18:39.456Z,4.55
2019-03-08T06:19:44.704Z,4.45
2019-03-08T06:20:49.727Z,3.62
2019-03-08T06:21:54.665Z,4.50
2019-03-08T06:23:00.266Z,4.42
2019-03-08T06:24:05.576Z,3.80
2019-03-08T06:25:10.963Z,4.80
2019-03-08T06:26:16.282Z,4.40
2019-03-08T06:27:21.300Z,4.20
2019-03-08T06:28:26.952Z,3.47
2019-03-08T06:29:32.259Z,3.37
2019-03-08T06:30:37.625Z,3.95
2019-03-08T06:31:42.946Z,3.72
2019-03-08T06:32:48.602Z,4.47
2019-03-08T06:33:53.915Z,4.42
2019-03-08T06:34:59.220Z,4.55
2019-03-08T06:36:04.884Z,5.03
2019-03-08T06:37:10.556Z,4.55
2019-03-08T06:38:15.702Z,4.97
2019-03-08T06:39:21.024Z,5.00
2019-03-08T06:40:25.982Z,4.78
2019-03-08T06:41:31.269Z,5.90
2019-03-08T06:42:36.743Z,4.85
2019-03-08T06:43:45.400Z,5.37
2019-03-08T06:44:49.161Z,4.50
2019-03-08T06:45:54.272Z,4.87
2019-03-08T06:46:59.358Z,5.62
2019-03-08T06:48:04.672Z,4.70
2019-03-08T06:49:09.849Z,4.60
2019-03-08T06:50:15.000Z,5.47
2019-03-08T06:51:20.016Z,8.15
2019-03-08T06:52:25.518Z,5.05
2019-03-08T06:53:30.600Z,4.55
2019-03-08T06:54:35.626Z,5.28
2019-03-08T06:55:40.763Z,6.47
2019-03-08T06:56:45.836Z,5.62
2019-03-08T06:58:03.560Z,5.25
2019-03-08T06:59:19.288Z,5.45
2019-03-08T07:00:57.797Z,5.20
2019-03-08T07:02:03.367Z,4.90
2019-03-08T07:03:08.650Z,5.20
2019-03-08T07:04:13.998Z,4.75
2019-03-08T07:05:19.092Z,5.65
2019-03-08T07:06:24.167Z,5.35
2019-03-08T07:07:29.152Z,4.67
2019-03-08T07:08:34.225Z,4.92
2019-03-08T07:09:39.399Z,5.47
2019-03-08T07:10:44.441Z,5.62
2019-03-08T07:11:49.478Z,4.60
2019-03-08T07:13:02.741Z,4.78
2019-03-08T07:14:01.623Z,5.25
2019-03-08T07:15:07.197Z,5.05
2019-03-08T07:16:13.870Z,5.33
2019-03-08T07:17:20.565Z,4.80
2019-03-08T07:18:25.661Z,5.05
2019-03-08T07:19:30.616Z,4.72
2019-03-08T07:20:57.993Z,6.55
2019-03-08T07:22:07.488Z,5.50
2019-03-08T07:23:40.751Z,5.50
2019-03-08T07:25:20.001Z,5.03
2019-03-08T07:26:45.663Z,5.55
2019-03-08T07:28:12.616Z,5.15
2019-03-08T07:29:31.341Z,4.45
2019-03-08T07:30:45.291Z,5.62
2019-03-08T07:31:59.466Z,4.75
2019-03-08T07:33:16.412Z,4.60
2019-03-08T07:34:49.544Z,6.45
2019-03-08T07:36:07.208Z,4.55
2019-03-08T07:37:43.146Z,4.97
2019-03-08T07:39:10.184Z,4.90
2019-03-08T07:40:49.284Z,4.75
2019-03-08T07:42:04.516Z,4.00
2019-03-08T07:43:21.947Z,4.80
2019-03-08T07:44:44.364Z,5.17
2019-03-08T07:45:56.823Z,4.70
2019-03-08T07:47:17.604Z,5.78
2019-03-08T07:48:40.478Z,8.10
2019-03-08T07:49:52.055Z,5.45
2019-03-08T07:51:17.591Z,5.53
2019-03-08T07:52:28.607Z,4.90
2019-03-08T07:53:46.046Z,4.60
2019-03-08T07:55:12.017Z,4.85
2019-03-08T07:56:25.557Z,4.70
2019-03-08T07:57:55.284Z,5.25
2019-03-08T07:59:09.100Z,4.90
2019-03-08T08:00:32.023Z,4.75
2019-03-08T08:01:55.611Z,5.17
2019-03-08T08:03:25.700Z,4.17
2019-03-08T08:04:41.758Z,5.30
2019-03-08T08:05:58.083Z,4.45
2019-03-08T08:07:08.943Z,4.92
2019-03-08T08:08:21.909Z,4.67
2019-03-08T08:09:44.559Z,4.97
2019-03-08T08:11:07.215Z,4.00
2019-03-08T08:12:23.413Z,5.00
2019-03-08T08:13:33.393Z,4.90
2019-03-08T08:15:00.466Z,5.45
2019-03-08T08:16:36.405Z,4.65
2019-03-08T08:17:58.779Z,4.37
2019-03-08T08:19:22.815Z,4.10
2019-03-08T08:20:55.841Z,4.40
2019-03-08T08:22:18.514Z,4.85
2019-03-08T08:23:45.509Z,6.03
2019-03-08T08:25:15.548Z,5.60
2019-03-08T08:26:33.208Z,5.83
2019-03-08T08:28:06.469Z,3.70
2019-03-08T08:29:34.930Z,4.08
2019-03-08T08:30:59.075Z,5.78
2019-03-08T08:32:23.858Z,4.78
2019-03-08T08:33:36.721Z,4.60
2019-03-08T08:35:06.613Z,4.30
2019-03-08T08:36:36.565Z,4.00
2019-03-08T08:38:03.812Z,4.08
2019-03-08T08:39:27.182Z,4.12
2019-03-08T08:40:43.171Z,3.85
2019-03-08T08:42:25.466Z,4.40
2019-03-08T08:43:48.138Z,4.15
2019-03-08T08:44:59.515Z,4.95
2019-03-08T08:46:13.502Z,3.83
2019-03-08T08:47:27.728Z,3.75
2019-03-08T08:48:52.042Z,3.72
2019-03-08T08:50:14.776Z,4.30
2019-03-08T08:51:25.134Z,3.87
2019-03-08T08:52:48.690Z,4.35
2019-03-08T08:54:03.490Z,4.33
2019-03-08T08:55:27.510Z,5.00
2019-03-08T08:56:50.488Z,3.42
2019-03-08T08:58:17.519Z,4.15
2019-03-08T08:59:38.673Z,3.75
2019-03-08T09:00:52.419Z,4.03
2019-03-08T09:02:11.946Z,4.85
2019-03-08T09:03:34.657Z,5.55
2019-03-08T09:04:55.406Z,3.87
2019-03-08T09:06:08.772Z,3.98
2019-03-08T09:07:19.226Z,4.40
2019-03-08T09:08:33.226Z,4.92
2019-03-08T09:09:53.719Z,3.65
2019-03-08T09:11:19.567Z,3.92
2019-03-08T09:12:42.530Z,3.85
2019-03-08T09:14:12.189Z,3.50
2019-03-08T09:15:27.238Z,3.92
2019-03-08T09:16:54.115Z,4.80
2019-03-08T09:18:21.199Z,3.65
2019-03-08T09:19:41.769Z,3.20
2019-03-08T09:21:08.570Z,3.85
2019-03-08T09:22:21.595Z,4.42
2019-03-08T09:23:36.134Z,3.92
2019-03-08T09:24:46.277Z,3.75
2019-03-08T09:26:01.183Z,3.52
2019-03-08T09:27:28.075Z,4.15
2019-03-08T09:28:42.444Z,3.60
2019-03-08T09:29:56.272Z,3.70
2019-03-08T09:31:20.472Z,4.00
2019-03-08T09:32:33.459Z,3.55
2019-03-08T09:33:48.487Z,2.95
2019-03-08T09:35:05.492Z,4.25
2019-03-08T09:36:17.056Z,5.03
2019-03-08T09:37:33.316Z,4.10
2019-03-08T09:39:00.216Z,3.35
2019-03-08T09:40:26.945Z,3.33
2019-03-08T09:41:49.517Z,3.47
2019-03-08T09:43:00.122Z,4.40
2019-03-08T09:44:26.453Z,3.50
2019-03-08T09:45:53.834Z,4.40
2019-03-08T09:47:16.401Z,2.87
2019-03-08T09:48:48.225Z,3.47
2019-03-08T09:50:11.894Z,3.52
2019-03-08T09:51:24.205Z,2.98
2019-03-08T09:52:47.762Z,2.98
2019-03-08T09:54:00.168Z,4.80
2019-03-08T09:55:27.140Z,3.77
2019-03-08T09:56:49.935Z,4.20
2019-03-08T09:58:13.983Z,3.45
2019-03-08T09:59:56.167Z,4.25
2019-03-08T10:01:17.153Z,3.83
2019-03-08T10:02:42.512Z,4.08
2019-03-08T10:03:57.447Z,4.10
2019-03-08T10:05:16.105Z,4.45
2019-03-08T10:06:42.687Z,4.58
2019-03-08T10:07:54.048Z,3.77
2019-03-08T10:09:36.390Z,3.70
2019-03-08T10:11:06.164Z,3.80
2019-03-08T10:12:41.963Z,4.10
2019-03-08T10:14:04.481Z,3.08
2019-03-08T10:15:27.282Z,4.72
2019-03-08T10:16:51.395Z,3.87
2019-03-08T10:18:13.930Z,4.17
2019-03-08T10:19:36.693Z,3.60
2019-03-08T10:21:02.298Z,3.85
2019-03-08T10:22:15.936Z,4.30
2019-03-08T10:23:31.544Z,4.03
2019-03-08T10:24:50.957Z,4.50
2019-03-08T10:26:07.335Z,4.45
2019-03-08T10:27:21.410Z,3.98
2019-03-08T10:28:44.428Z,3.25
2019-03-08T10:29:58.548Z,3.52
2019-03-08T10:31:11.180Z,3.62
2019-03-08T10:32:41.326Z,4.45
2019-03-08T10:33:56.855Z,3.87
2019-03-08T10:35:23.922Z,3.22
2019-03-08T10:36:39.697Z,3.37
2019-03-08T10:38:00.374Z,3.12
2019-03-08T10:39:23.996Z,3.45
2019-03-08T10:40:35.367Z,2.95
2019-03-08T10:41:52.098Z,4.03
2019-03-08T10:43:00.981Z,3.22
2019-03-08T10:44:15.454Z,3.72
2019-03-08T10:45:45.109Z,3.15
2019-03-08T10:47:21.142Z,3.40
2019-03-08T10:48:54.167Z,3.00
2019-03-08T10:50:08.002Z,3.92
2019-03-08T10:51:30.876Z,3.10
2019-03-08T10:52:46.505Z,4.00
2019-03-08T10:54:13.682Z,3.50
2019-03-08T10:55:56.037Z,4.12
2019-03-08T10:57:13.604Z,3.20
2019-03-08T10:58:37.745Z,3.08
2019-03-08T10:59:50.840Z,3.65
2019-03-08T11:01:17.965Z,3.98
2019-03-08T11:02:33.191Z,4.00
2019-03-08T11:03:45.172Z,3.60
2019-03-08T11:05:01.506Z,4.33
2019-03-08T11:06:14.857Z,4.22
2019-03-08T11:07:25.966Z,4.97
2019-03-08T11:08:38.011Z,3.90
2019-03-08T11:10:11.097Z,4.00
2019-03-08T11:11:41.329Z,3.92
2019-03-08T11:12:57.773Z,3.83
2019-03-08T11:14:18.723Z,3.55
2019-03-08T11:15:41.506Z,3.77
2019-03-08T11:17:06.342Z,4.20
2019-03-08T11:18:24.788Z,3.22
2019-03-08T11:20:07.199Z,3.62
2019-03-08T11:21:32.040Z,3.12
2019-03-08T11:22:54.470Z,6.60
2019-03-08T11:24:24.668Z,3.83
2019-03-08T11:25:40.116Z,3.62
2019-03-08T11:27:04.541Z,4.50
2019-03-08T11:28:20.880Z,3.52
2019-03-08T11:29:33.528Z,3.55
2019-03-08T11:30:56.051Z,3.35
2019-03-08T11:32:23.030Z,3.60
2019-03-08T11:33:39.825Z,4.00
2019-03-08T11:34:56.237Z,3.45
2019-03-08T11:36:26.074Z,3.45
2019-03-08T11:37:42.361Z,3.70
2019-03-08T11:39:06.506Z,3.65
2019-03-08T11:40:21.031Z,3.90
2019-03-08T11:41:33.934Z,3.50
2019-03-08T11:43:01.185Z,3.77
2019-03-08T11:44:25.404Z,3.15
2019-03-08T11:45:39.245Z,2.90
2019-03-08T11:47:06.295Z,2.58
2019-03-08T11:48:30.795Z,2.67
2019-03-08T11:50:10.278Z,2.83
2019-03-08T11:51:43.283Z,3.47
2019-03-08T11:53:04.331Z,2.67
2019-03-08T11:54:18.599Z,2.90
2019-03-08T11:55:48.500Z,3.95
2019-03-08T11:57:15.457Z,4.53
2019-03-08T11:58:46.001Z,3.62
2019-03-08T12:00:09.123Z,3.20
2019-03-08T12:01:31.727Z,2.98
2019-03-08T12:02:58.514Z,2.90
2019-03-08T12:04:15.666Z,4.33
2019-03-08T12:05:34.283Z,3.35
2019-03-08T12:07:04.814Z,2.98
2019-03-08T12:08:20.103Z,3.15
2019-03-08T12:09:37.464Z,3.40
2019-03-08T12:11:03.847Z,3.58
2019-03-08T12:12:35.793Z,3.30
2019-03-08T12:13:56.198Z,4.03
2019-03-08T12:15:14.608Z,3.90
2019-03-08T12:16:32.558Z,3.67
2019-03-08T12:18:11.758Z,3.35
2019-03-08T12:19:28.792Z,3.72
2019-03-08T12:20:49.608Z,2.87
2019-03-08T12:22:13.674Z,4.62
2019-03-08T12:23:43.641Z,3.52
2019-03-08T12:25:04.653Z,3.25
2019-03-08T12:26:37.663Z,4.00
2019-03-08T12:28:11.279Z,3.00
2019-03-08T12:29:44.370Z,3.40
2019-03-08T12:31:06.824Z,3.47
2019-03-08T12:32:23.609Z,3.70
2019-03-08T12:33:41.425Z,3.20
2019-03-08T12:34:55.664Z,2.90
2019-03-08T12:36:29.172Z,3.83
2019-03-08T12:37:56.426Z,2.58
2019-03-08T12:39:21.508Z,3.47
2019-03-08T12:40:54.979Z,4.25
2019-03-08T12:42:18.041Z,3.40
2019-03-08T12:43:47.881Z,2.80
2019-03-08T12:45:14.873Z,3.85
2019-03-08T12:46:37.941Z,3.87
2019-03-08T12:48:00.577Z,3.60
2019-03-08T12:49:33.825Z,3.42
2019-03-08T12:50:48.230Z,3.30
2019-03-08T12:52:01.860Z,2.92
2019-03-08T12:53:21.275Z,2.83
2019-03-08T12:54:45.937Z,3.60
2019-03-08T12:55:59.115Z,4.20
2019-03-08T12:57:21.351Z,3.33
2019-03-08T12:58:39.161Z,3.80
2019-03-08T13:00:09.209Z,3.20
2019-03-08T13:01:21.238Z,3.60
2019-03-08T13:02:41.413Z,3.77
2019-03-08T13:03:57.334Z,3.45
2019-03-08T13:05:20.350Z,3.30
2019-03-08T13:06:43.314Z,2.75
2019-03-08T13:07:55.454Z,3.92
2019-03-08T13:09:09.477Z,5.20
2019-03-08T13:10:14.946Z,3.52
2019-03-08T13:11:20.234Z,2.90
2019-03-08T13:12:25.389Z,4.20
2019-03-08T13:13:30.799Z,3.60
2019-03-08T13:14:35.931Z,3.67
2019-03-08T13:15:41.134Z,3.17
2019-03-08T13:16:46.229Z,6.45
2019-03-08T13:17:51.379Z,4.28
2019-03-08T13:18:56.565Z,4.58
2019-03-08T13:20:01.984Z,3.42
2019-03-08T13:21:07.154Z,3.55
2019-03-08T13:22:12.536Z,3.10
2019-03-08T13:23:17.566Z,5.80
2019-03-08T13:24:22.865Z,3.62
2019-03-08T13:25:28.535Z,3.12
2019-03-08T13:26:33.738Z,2.72
2019-03-08T13:27:39.059Z,3.40
2019-03-08T13:28:44.141Z,4.60
2019-03-08T13:29:49.265Z,3.17
2019-03-08T13:30:54.404Z,3.70
2019-03-08T13:31:59.679Z,3.65
2019-03-08T13:33:04.982Z,4.78
2019-03-08T13:34:10.095Z,4.33
2019-03-08T13:35:15.411Z,3.55
2019-03-08T13:36:20.518Z,3.70
2019-03-08T13:37:25.771Z,5.60
2019-03-08T13:38:30.939Z,3.85
2019-03-08T13:39:39.854Z,4.58
2019-03-08T13:40:44.881Z,3.15
2019-03-08T13:41:49.883Z,4.20
2019-03-08T13:42:55.001Z,3.92
2019-03-08T13:44:00.769Z,3.98
2019-03-08T13:45:08.042Z,3.42
2019-03-08T13:46:13.173Z,4.10
2019-03-08T13:47:18.754Z,4.00
2019-03-08T13:48:23.966Z,4.65
2019-03-08T13:49:29.112Z,4.30
2019-03-08T13:50:34.471Z,4.30
2019-03-08T13:51:39.729Z,4.33
2019-03-08T13:52:48.316Z,5.08
2019-03-08T13:53:53.382Z,4.00
2019-03-08T13:54:58.480Z,4.17
2019-03-08T13:56:03.539Z,4.85
2019-03-08T13:57:08.596Z,5.62
2019-03-08T13:58:14.032Z,4.15
2019-03-08T13:59:19.180Z,4.47
2019-03-08T14:00:24.403Z,4.55
2019-03-08T14:01:29.731Z,4.20
2019-03-08T14:02:34.731Z,4.85
2019-03-08T14:03:40.125Z,4.85
2019-03-08T14:04:45.146Z,4.90
2019-03-08T14:05:50.159Z,4.20
2019-03-08T14:06:55.155Z,4.58
2019-03-08T14:08:00.212Z,5.12
2019-03-08T14:09:07.749Z,4.35
2019-03-08T14:10:14.419Z,5.00
2019-03-08T14:11:19.494Z,4.40
2019-03-08T14:12:24.561Z,4.80
2019-03-08T14:13:29.850Z,4.00
2019-03-08T14:14:35.308Z,3.70
2019-03-08T14:15:40.636Z,8.03
2019-03-08T14:16:45.671Z,4.97
2019-03-08T14:17:50.808Z,4.92
2019-03-08T14:18:55.805Z,4.20
2019-03-08T14:20:01.080Z,4.40
2019-03-08T14:21:06.419Z,4.30
2019-03-08T14:22:11.984Z,4.17
2019-03-08T14:23:17.092Z,4.22
2019-03-08T14:24:22.103Z,4.85
2019-03-08T14:25:27.131Z,3.83
2019-03-08T14:26:32.207Z,4.00
2019-03-08T14:27:37.547Z,3.37
2019-03-08T14:28:42.683Z,6.03
2019-03-08T14:29:47.719Z,3.83
2019-03-08T14:31:15.016Z,5.05
2019-03-08T14:32:25.227Z,4.12
2019-03-08T14:33:28.200Z,3.00
2019-03-08T14:34:33.311Z,3.30
2019-03-08T14:35:38.523Z,3.80
2019-03-08T14:36:44.574Z,4.03
2019-03-08T14:37:52.317Z,4.20
2019-03-08T14:38:56.961Z,4.58
2019-03-08T14:40:03.673Z,4.97
2019-03-08T14:41:16.644Z,4.60
2019-03-08T14:42:40.474Z,4.55
2019-03-08T14:44:07.504Z,4.12
2019-03-08T14:45:20.444Z,3.85
2019-03-08T14:46:47.763Z,4.20
2019-03-08T14:47:55.110Z,4.03
2019-03-08T14:49:00.196Z,4.05
2019-03-08T14:50:06.699Z,3.90
2019-03-08T14:51:13.098Z,4.47
2019-03-08T14:52:21.531Z,3.75
2019-03-08T14:53:28.448Z,4.60
2019-03-08T14:54:32.440Z,3.87
2019-03-08T14:55:37.683Z,3.62
2019-03-08T14:56:42.950Z,3.50
2019-03-08T14:57:47.967Z,3.87
2019-03-08T14:58:53.294Z,3.95
2019-03-08T14:59:58.498Z,3.95
2019-03-08T15:01:06.236Z,4.05
2019-03-08T15:02:13.713Z,3.50
2019-03-08T15:03:20.191Z,3.75
2019-03-08T15:04:24.149Z,4.40
2019-03-08T15:05:29.487Z,4.53
2019-03-08T15:06:34.486Z,4.53
2019-03-08T15:07:41.152Z,4.55
2019-03-08T15:08:46.690Z,3.50
2019-03-08T15:09:52.987Z,3.70
2019-03-08T15:10:58.063Z,3.50
2019-03-08T15:12:03.192Z,3.47
2019-03-08T15:13:08.342Z,3.52
2019-03-08T15:14:13.469Z,2.62
2019-03-08T15:15:18.613Z,2.80
2019-03-08T15:16:23.866Z,4.25
2019-03-08T15:17:29.143Z,4.25
2019-03-08T15:18:34.226Z,3.30
2019-03-08T15:19:40.197Z,3.92
2019-03-08T15:20:46.749Z,3.92
2019-03-08T15:21:51.861Z,3.67
2019-03-08T15:22:56.875Z,2.83
2019-03-08T15:24:01.981Z,3.30
2019-03-08T15:25:08.455Z,4.33
2019-03-08T15:26:14.900Z,3.52
2019-03-08T15:27:19.979Z,3.72
2019-03-08T15:28:25.207Z,2.90
2019-03-08T15:29:30.358Z,2.72
2019-03-08T15:30:35.947Z,3.30
2019-03-08T15:31:41.071Z,2.67
2019-03-08T15:32:47.272Z,2.62
2019-03-08T15:33:52.702Z,3.85
2019-03-08T15:34:57.862Z,2.60
2019-03-08T15:36:03.315Z,2.22
2019-03-08T15:37:08.499Z,2.67
2019-03-08T15:38:13.647Z,3.10
2019-03-08T15:39:20.228Z,2.45
2019-03-08T15:40:25.510Z,2.92
2019-03-08T15:41:30.838Z,2.80
2019-03-08T15:42:37.893Z,3.60